sensor_id;sensor_type;location;lat;lon;timestamp;P1;durP1;ratioP1;P2;durP2;ratioP2
5785;SDS011;2919;48.630;9.000;2022-08-25T00:00:31;2.50;;;1.50;;
5785;SDS011;2919;48.630;9.000;2022-08-25T00:02:57;3.03;;;1.47;;
5785;SDS011;2919;48.630;9.000;2022-08-25T00:05:23;3.20;;;1.70;;
5785;SDS011;2919;48.630;9.000;2022-08-25T00:07:54;3.30;;;1.50;;
5785;SDS011;2919;48.630;9.000;2022-08-25T00:10:19;3.73;;;2.07;;
5785;SDS011;2919;48.630;9.000;2022-08-25T00:12:45;3.00;;;1.67;;
5785;SDS011;2919;48.630;9.000;2022-08-25T00:15:11;3.70;;;1.90;;
5785;SDS011;2919;48.630;9.000;2022-08-25T00:17:37;3.00;;;1.83;;
5785;SDS011;2919;48.630;9.000;2022-08-25T00:20:04;2.47;;;1.37;;
5785;SDS011;2919;48.630;9.000;2022-08-25T00:22:30;3.40;;;1.60;;
5785;SDS011;2919;48.630;9.000;2022-08-25T00:24:55;2.83;;;1.50;;
5785;SDS011;2919;48.630;9.000;2022-08-25T00:27:21;3.67;;;1.60;;
5785;SDS011;2919;48.630;9.000;2022-08-25T00:29:47;5.50;;;1.80;;
5785;SDS011;2919;48.630;9.000;2022-08-25T00:32:12;2.70;;;1.13;;
5785;SDS011;2919;48.630;9.000;2022-08-25T00:34:39;2.37;;;1.27;;
5785;SDS011;2919;48.630;9.000;2022-08-25T00:37:05;5.37;;;2.10;;
5785;SDS011;2919;48.630;9.000;2022-08-25T00:39:33;2.63;;;1.53;;
5785;SDS011;2919;48.630;9.000;2022-08-25T00:42:00;3.80;;;1.70;;
5785;SDS011;2919;48.630;9.000;2022-08-25T00:44:28;2.40;;;1.27;;
5785;SDS011;2919;48.630;9.000;2022-08-25T00:46:56;3.47;;;1.63;;
5785;SDS011;2919;48.630;9.000;2022-08-25T00:52:00;4.33;;;1.60;;
5785;SDS011;2919;48.630;9.000;2022-08-25T00:54:37;2.40;;;1.53;;
5785;SDS011;2919;48.630;9.000;2022-08-25T00:57:16;4.03;;;1.50;;
5785;SDS011;2919;48.630;9.000;2022-08-25T00:59:46;10.80;;;1.73;;
5785;SDS011;2919;48.630;9.000;2022-08-25T01:02:12;4.90;;;1.70;;
5785;SDS011;2919;48.630;9.000;2022-08-25T01:04:39;4.47;;;1.80;;
5785;SDS011;2919;48.630;9.000;2022-08-25T01:07:05;2.43;;;1.70;;
5785;SDS011;2919;48.630;9.000;2022-08-25T01:09:31;2.90;;;1.70;;
5785;SDS011;2919;48.630;9.000;2022-08-25T01:11:58;2.93;;;1.40;;
5785;SDS011;2919;48.630;9.000;2022-08-25T01:14:24;2.30;;;1.00;;
5785;SDS011;2919;48.630;9.000;2022-08-25T01:16:51;2.93;;;1.97;;
5785;SDS011;2919;48.630;9.000;2022-08-25T01:19:17;4.40;;;2.70;;
5785;SDS011;2919;48.630;9.000;2022-08-25T01:21:47;3.87;;;1.90;;
5785;SDS011;2919;48.630;9.000;2022-08-25T01:24:56;2.93;;;1.60;;
5785;SDS011;2919;48.630;9.000;2022-08-25T01:27:16;3.40;;;1.60;;
5785;SDS011;2919;48.630;9.000;2022-08-25T01:29:42;4.67;;;2.23;;
5785;SDS011;2919;48.630;9.000;2022-08-25T01:32:08;3.30;;;1.60;;
5785;SDS011;2919;48.630;9.000;2022-08-25T01:34:37;3.27;;;1.80;;
5785;SDS011;2919;48.630;9.000;2022-08-25T01:37:08;3.60;;;1.73;;
5785;SDS011;2919;48.630;9.000;2022-08-25T01:39:35;3.33;;;1.77;;
5785;SDS011;2919;48.630;9.000;2022-08-25T01:44:27;2.83;;;1.40;;
5785;SDS011;2919;48.630;9.000;2022-08-25T01:46:53;3.00;;;1.83;;
5785;SDS011;2919;48.630;9.000;2022-08-25T01:49:19;6.03;;;2.33;;
5785;SDS011;2919;48.630;9.000;2022-08-25T01:51:56;5.00;;;1.90;;
5785;SDS011;2919;48.630;9.000;2022-08-25T01:54:25;3.90;;;2.23;;
5785;SDS011;2919;48.630;9.000;2022-08-25T01:56:51;4.33;;;1.90;;
5785;SDS011;2919;48.630;9.000;2022-08-25T01:59:17;4.67;;;2.10;;
5785;SDS011;2919;48.630;9.000;2022-08-25T02:01:45;13.50;;;2.20;;
5785;SDS011;2919;48.630;9.000;2022-08-25T02:04:11;3.27;;;2.10;;
5785;SDS011;2919;48.630;9.000;2022-08-25T02:06:36;2.50;;;1.50;;
5785;SDS011;2919;48.630;9.000;2022-08-25T02:09:10;3.40;;;2.07;;
5785;SDS011;2919;48.630;9.000;2022-08-25T02:11:38;3.67;;;1.80;;
5785;SDS011;2919;48.630;9.000;2022-08-25T02:14:06;2.87;;;1.50;;
5785;SDS011;2919;48.630;9.000;2022-08-25T02:16:34;4.77;;;2.30;;
5785;SDS011;2919;48.630;9.000;2022-08-25T02:19:01;2.40;;;1.47;;
5785;SDS011;2919;48.630;9.000;2022-08-25T02:21:28;4.43;;;1.77;;
5785;SDS011;2919;48.630;9.000;2022-08-25T02:23:54;2.90;;;1.50;;
5785;SDS011;2919;48.630;9.000;2022-08-25T02:26:21;4.37;;;2.10;;
5785;SDS011;2919;48.630;9.000;2022-08-25T02:28:47;2.73;;;1.93;;
5785;SDS011;2919;48.630;9.000;2022-08-25T02:31:14;5.27;;;1.97;;
5785;SDS011;2919;48.630;9.000;2022-08-25T02:33:41;3.90;;;2.00;;
5785;SDS011;2919;48.630;9.000;2022-08-25T02:36:07;3.50;;;1.97;;
5785;SDS011;2919;48.630;9.000;2022-08-25T02:38:33;3.20;;;1.80;;
5785;SDS011;2919;48.630;9.000;2022-08-25T02:41:00;3.50;;;1.70;;
5785;SDS011;2919;48.630;9.000;2022-08-25T02:43:38;6.70;;;1.90;;
5785;SDS011;2919;48.630;9.000;2022-08-25T02:46:05;3.23;;;1.53;;
5785;SDS011;2919;48.630;9.000;2022-08-25T02:48:31;3.33;;;2.13;;
5785;SDS011;2919;48.630;9.000;2022-08-25T02:50:57;4.10;;;2.07;;
5785;SDS011;2919;48.630;9.000;2022-08-25T02:53:25;5.70;;;2.20;;
5785;SDS011;2919;48.630;9.000;2022-08-25T02:55:51;3.67;;;1.87;;
5785;SDS011;2919;48.630;9.000;2022-08-25T02:58:18;5.20;;;2.40;;
5785;SDS011;2919;48.630;9.000;2022-08-25T03:00:44;3.63;;;1.97;;
5785;SDS011;2919;48.630;9.000;2022-08-25T03:03:10;4.27;;;2.23;;
5785;SDS011;2919;48.630;9.000;2022-08-25T03:05:36;4.23;;;2.10;;
5785;SDS011;2919;48.630;9.000;2022-08-25T03:08:02;3.57;;;1.80;;
5785;SDS011;2919;48.630;9.000;2022-08-25T03:10:29;3.00;;;1.60;;
5785;SDS011;2919;48.630;9.000;2022-08-25T03:12:55;3.77;;;2.03;;
5785;SDS011;2919;48.630;9.000;2022-08-25T03:15:21;3.93;;;2.10;;
5785;SDS011;2919;48.630;9.000;2022-08-25T03:17:48;3.50;;;2.03;;
5785;SDS011;2919;48.630;9.000;2022-08-25T03:20:14;4.00;;;1.90;;
5785;SDS011;2919;48.630;9.000;2022-08-25T03:22:40;4.40;;;2.03;;
5785;SDS011;2919;48.630;9.000;2022-08-25T03:25:07;3.60;;;1.90;;
5785;SDS011;2919;48.630;9.000;2022-08-25T03:27:51;4.97;;;2.60;;
5785;SDS011;2919;48.630;9.000;2022-08-25T03:30:17;2.27;;;1.43;;
5785;SDS011;2919;48.630;9.000;2022-08-25T03:32:43;9.23;;;1.90;;
5785;SDS011;2919;48.630;9.000;2022-08-25T03:35:09;2.97;;;1.73;;
5785;SDS011;2919;48.630;9.000;2022-08-25T03:37:35;3.70;;;1.83;;
5785;SDS011;2919;48.630;9.000;2022-08-25T03:40:05;7.30;;;2.20;;
5785;SDS011;2919;48.630;9.000;2022-08-25T03:42:33;3.90;;;2.30;;
5785;SDS011;2919;48.630;9.000;2022-08-25T03:45:00;3.67;;;2.13;;
5785;SDS011;2919;48.630;9.000;2022-08-25T03:47:28;3.47;;;2.13;;
5785;SDS011;2919;48.630;9.000;2022-08-25T03:49:55;3.80;;;2.00;;
5785;SDS011;2919;48.630;9.000;2022-08-25T03:52:20;3.73;;;2.13;;
5785;SDS011;2919;48.630;9.000;2022-08-25T03:54:46;5.87;;;2.30;;
5785;SDS011;2919;48.630;9.000;2022-08-25T03:57:12;5.20;;;2.30;;
5785;SDS011;2919;48.630;9.000;2022-08-25T03:59:38;6.90;;;2.43;;
5785;SDS011;2919;48.630;9.000;2022-08-25T04:02:04;3.53;;;2.30;;
5785;SDS011;2919;48.630;9.000;2022-08-25T04:04:30;3.43;;;2.40;;
5785;SDS011;2919;48.630;9.000;2022-08-25T04:06:56;6.20;;;2.33;;
5785;SDS011;2919;48.630;9.000;2022-08-25T04:09:23;2.93;;;1.87;;
5785;SDS011;2919;48.630;9.000;2022-08-25T04:11:49;3.40;;;1.77;;
5785;SDS011;2919;48.630;9.000;2022-08-25T04:14:15;4.53;;;2.63;;
5785;SDS011;2919;48.630;9.000;2022-08-25T04:16:41;3.97;;;2.07;;
5785;SDS011;2919;48.630;9.000;2022-08-25T04:19:07;12.63;;;2.80;;
5785;SDS011;2919;48.630;9.000;2022-08-25T04:21:34;5.30;;;2.30;;
5785;SDS011;2919;48.630;9.000;2022-08-25T04:24:04;5.50;;;2.47;;
5785;SDS011;2919;48.630;9.000;2022-08-25T04:26:34;6.40;;;2.30;;
5785;SDS011;2919;48.630;9.000;2022-08-25T04:29:03;3.80;;;2.10;;
5785;SDS011;2919;48.630;9.000;2022-08-25T04:31:30;7.60;;;3.07;;
5785;SDS011;2919;48.630;9.000;2022-08-25T04:33:57;4.10;;;2.50;;
5785;SDS011;2919;48.630;9.000;2022-08-25T04:36:25;6.00;;;2.20;;
5785;SDS011;2919;48.630;9.000;2022-08-25T04:38:50;8.23;;;2.60;;
5785;SDS011;2919;48.630;9.000;2022-08-25T04:41:17;4.17;;;2.50;;
5785;SDS011;2919;48.630;9.000;2022-08-25T04:43:44;3.70;;;1.83;;
5785;SDS011;2919;48.630;9.000;2022-08-25T04:46:11;4.60;;;2.00;;
5785;SDS011;2919;48.630;9.000;2022-08-25T04:48:40;5.47;;;2.63;;
5785;SDS011;2919;48.630;9.000;2022-08-25T04:51:07;3.30;;;1.80;;
5785;SDS011;2919;48.630;9.000;2022-08-25T04:53:34;4.20;;;2.37;;
5785;SDS011;2919;48.630;9.000;2022-08-25T04:56:00;5.87;;;2.47;;
5785;SDS011;2919;48.630;9.000;2022-08-25T04:58:29;15.33;;;2.27;;
5785;SDS011;2919;48.630;9.000;2022-08-25T05:01:00;6.57;;;2.37;;
5785;SDS011;2919;48.630;9.000;2022-08-25T05:03:36;5.50;;;2.73;;
5785;SDS011;2919;48.630;9.000;2022-08-25T05:06:02;6.50;;;2.90;;
5785;SDS011;2919;48.630;9.000;2022-08-25T05:08:30;5.23;;;3.03;;
5785;SDS011;2919;48.630;9.000;2022-08-25T05:10:56;5.00;;;2.50;;
5785;SDS011;2919;48.630;9.000;2022-08-25T05:13:23;6.37;;;1.90;;
5785;SDS011;2919;48.630;9.000;2022-08-25T05:15:50;3.30;;;2.20;;
5785;SDS011;2919;48.630;9.000;2022-08-25T05:18:17;7.47;;;2.70;;
5785;SDS011;2919;48.630;9.000;2022-08-25T05:20:44;3.97;;;2.07;;
5785;SDS011;2919;48.630;9.000;2022-08-25T05:23:10;6.50;;;3.07;;
5785;SDS011;2919;48.630;9.000;2022-08-25T05:25:36;4.50;;;2.50;;
5785;SDS011;2919;48.630;9.000;2022-08-25T05:28:02;3.60;;;2.10;;
5785;SDS011;2919;48.630;9.000;2022-08-25T05:30:28;4.97;;;2.40;;
5785;SDS011;2919;48.630;9.000;2022-08-25T05:32:54;4.10;;;2.90;;
5785;SDS011;2919;48.630;9.000;2022-08-25T05:35:19;4.23;;;2.53;;
5785;SDS011;2919;48.630;9.000;2022-08-25T05:37:45;5.50;;;2.70;;
5785;SDS011;2919;48.630;9.000;2022-08-25T05:40:12;2.50;;;1.50;;
5785;SDS011;2919;48.630;9.000;2022-08-25T05:42:37;4.67;;;2.40;;
5785;SDS011;2919;48.630;9.000;2022-08-25T05:45:04;5.37;;;2.10;;
5785;SDS011;2919;48.630;9.000;2022-08-25T05:47:31;3.47;;;2.17;;
5785;SDS011;2919;48.630;9.000;2022-08-25T05:49:57;5.60;;;3.13;;
5785;SDS011;2919;48.630;9.000;2022-08-25T05:52:23;6.27;;;2.50;;
5785;SDS011;2919;48.630;9.000;2022-08-25T05:54:50;6.67;;;3.10;;
5785;SDS011;2919;48.630;9.000;2022-08-25T05:57:17;7.30;;;3.10;;
5785;SDS011;2919;48.630;9.000;2022-08-25T05:59:42;6.20;;;3.10;;
5785;SDS011;2919;48.630;9.000;2022-08-25T06:02:08;6.13;;;2.43;;
5785;SDS011;2919;48.630;9.000;2022-08-25T06:04:57;6.50;;;3.33;;
5785;SDS011;2919;48.630;9.000;2022-08-25T06:07:22;13.43;;;3.80;;
5785;SDS011;2919;48.630;9.000;2022-08-25T06:09:48;6.60;;;3.70;;
5785;SDS011;2919;48.630;9.000;2022-08-25T06:12:14;12.37;;;4.20;;
5785;SDS011;2919;48.630;9.000;2022-08-25T06:14:41;7.93;;;3.23;;
5785;SDS011;2919;48.630;9.000;2022-08-25T06:17:07;6.67;;;3.13;;
5785;SDS011;2919;48.630;9.000;2022-08-25T06:19:33;7.63;;;3.97;;
5785;SDS011;2919;48.630;9.000;2022-08-25T06:21:59;9.70;;;4.20;;
5785;SDS011;2919;48.630;9.000;2022-08-25T06:24:25;4.93;;;3.33;;
5785;SDS011;2919;48.630;9.000;2022-08-25T06:26:52;8.30;;;4.90;;
5785;SDS011;2919;48.630;9.000;2022-08-25T06:29:18;8.17;;;4.30;;
5785;SDS011;2919;48.630;9.000;2022-08-25T06:31:44;15.10;;;4.37;;
5785;SDS011;2919;48.630;9.000;2022-08-25T06:34:10;10.93;;;4.30;;
5785;SDS011;2919;48.630;9.000;2022-08-25T06:36:36;5.33;;;3.63;;
5785;SDS011;2919;48.630;9.000;2022-08-25T06:39:03;9.30;;;4.60;;
5785;SDS011;2919;48.630;9.000;2022-08-25T06:41:30;7.17;;;4.63;;
5785;SDS011;2919;48.630;9.000;2022-08-25T06:43:56;10.00;;;4.23;;
5785;SDS011;2919;48.630;9.000;2022-08-25T06:46:24;8.57;;;4.00;;
5785;SDS011;2919;48.630;9.000;2022-08-25T06:48:51;8.87;;;4.00;;
5785;SDS011;2919;48.630;9.000;2022-08-25T06:51:18;6.40;;;4.20;;
5785;SDS011;2919;48.630;9.000;2022-08-25T06:53:46;7.53;;;4.17;;
5785;SDS011;2919;48.630;9.000;2022-08-25T06:56:13;8.57;;;4.73;;
5785;SDS011;2919;48.630;9.000;2022-08-25T06:58:40;10.17;;;4.40;;
5785;SDS011;2919;48.630;9.000;2022-08-25T07:03:52;7.53;;;4.80;;
5785;SDS011;2919;48.630;9.000;2022-08-25T07:06:21;11.53;;;3.70;;
5785;SDS011;2919;48.630;9.000;2022-08-25T07:08:48;7.10;;;3.57;;
5785;SDS011;2919;48.630;9.000;2022-08-25T07:11:14;7.80;;;4.20;;
5785;SDS011;2919;48.630;9.000;2022-08-25T07:13:40;11.50;;;3.83;;
5785;SDS011;2919;48.630;9.000;2022-08-25T07:16:06;7.10;;;4.17;;
5785;SDS011;2919;48.630;9.000;2022-08-25T07:18:33;8.50;;;4.80;;
5785;SDS011;2919;48.630;9.000;2022-08-25T07:20:59;7.97;;;4.00;;
5785;SDS011;2919;48.630;9.000;2022-08-25T07:23:25;8.03;;;3.57;;
5785;SDS011;2919;48.630;9.000;2022-08-25T07:25:52;7.20;;;3.33;;
5785;SDS011;2919;48.630;9.000;2022-08-25T07:28:18;6.90;;;2.93;;
5785;SDS011;2919;48.630;9.000;2022-08-25T07:30:44;6.40;;;3.73;;
5785;SDS011;2919;48.630;9.000;2022-08-25T07:33:10;7.50;;;3.77;;
5785;SDS011;2919;48.630;9.000;2022-08-25T07:35:36;8.83;;;4.00;;
5785;SDS011;2919;48.630;9.000;2022-08-25T07:38:02;8.70;;;4.03;;
5785;SDS011;2919;48.630;9.000;2022-08-25T07:40:34;11.73;;;3.27;;
5785;SDS011;2919;48.630;9.000;2022-08-25T07:43:03;6.20;;;3.27;;
5785;SDS011;2919;48.630;9.000;2022-08-25T07:45:32;8.43;;;3.77;;
5785;SDS011;2919;48.630;9.000;2022-08-25T07:48:09;5.30;;;3.30;;
5785;SDS011;2919;48.630;9.000;2022-08-25T07:50:37;8.87;;;3.47;;
5785;SDS011;2919;48.630;9.000;2022-08-25T07:53:06;8.07;;;2.83;;
5785;SDS011;2919;48.630;9.000;2022-08-25T07:55:32;8.97;;;3.57;;
5785;SDS011;2919;48.630;9.000;2022-08-25T07:58:00;6.47;;;3.40;;
5785;SDS011;2919;48.630;9.000;2022-08-25T08:00:28;5.50;;;3.33;;
5785;SDS011;2919;48.630;9.000;2022-08-25T08:02:56;4.88;;;2.78;;
5785;SDS011;2919;48.630;9.000;2022-08-25T08:05:23;6.15;;;3.30;;
5785;SDS011;2919;48.630;9.000;2022-08-25T08:07:50;7.07;;;3.15;;
5785;SDS011;2919;48.630;9.000;2022-08-25T08:10:16;4.88;;;2.75;;
5785;SDS011;2919;48.630;9.000;2022-08-25T08:12:42;6.65;;;3.25;;
5785;SDS011;2919;48.630;9.000;2022-08-25T08:15:08;4.68;;;2.70;;
5785;SDS011;2919;48.630;9.000;2022-08-25T08:17:34;6.40;;;3.40;;
5785;SDS011;2919;48.630;9.000;2022-08-25T08:20:00;3.80;;;2.90;;
5785;SDS011;2919;48.630;9.000;2022-08-25T08:22:29;3.13;;;2.17;;
5785;SDS011;2919;48.630;9.000;2022-08-25T08:24:54;4.80;;;2.80;;
5785;SDS011;2919;48.630;9.000;2022-08-25T08:27:20;7.25;;;3.20;;
5785;SDS011;2919;48.630;9.000;2022-08-25T08:29:46;4.30;;;2.47;;
5785;SDS011;2919;48.630;9.000;2022-08-25T08:32:12;5.72;;;2.92;;
5785;SDS011;2919;48.630;9.000;2022-08-25T08:34:38;6.35;;;3.45;;
5785;SDS011;2919;48.630;9.000;2022-08-25T08:37:05;14.27;;;3.03;;
5785;SDS011;2919;48.630;9.000;2022-08-25T08:39:32;5.85;;;2.55;;
5785;SDS011;2919;48.630;9.000;2022-08-25T08:42:23;4.07;;;2.70;;
5785;SDS011;2919;48.630;9.000;2022-08-25T08:56:37;4.82;;;2.53;;
5785;SDS011;2919;48.630;9.000;2022-08-25T08:59:14;5.43;;;2.70;;
5785;SDS011;2919;48.630;9.000;2022-08-25T09:01:49;5.13;;;2.90;;
5785;SDS011;2919;48.630;9.000;2022-08-25T09:04:43;4.90;;;2.90;;
5785;SDS011;2919;48.630;9.000;2022-08-25T09:07:18;6.60;;;3.00;;
5785;SDS011;2919;48.630;9.000;2022-08-25T09:10:05;5.95;;;2.35;;
5785;SDS011;2919;48.630;9.000;2022-08-25T09:18:20;6.32;;;3.20;;
5785;SDS011;2919;48.630;9.000;2022-08-25T09:23:36;6.03;;;3.72;;
5785;SDS011;2919;48.630;9.000;2022-08-25T09:33:45;4.78;;;3.20;;
5785;SDS011;2919;48.630;9.000;2022-08-25T09:36:11;6.43;;;3.08;;
5785;SDS011;2919;48.630;9.000;2022-08-25T09:38:37;4.43;;;2.75;;
5785;SDS011;2919;48.630;9.000;2022-08-25T09:41:04;5.45;;;2.55;;
5785;SDS011;2919;48.630;9.000;2022-08-25T09:43:32;6.40;;;3.13;;
5785;SDS011;2919;48.630;9.000;2022-08-25T09:53:45;7.35;;;2.78;;
5785;SDS011;2919;48.630;9.000;2022-08-25T09:56:15;5.70;;;2.63;;
5785;SDS011;2919;48.630;9.000;2022-08-25T09:58:45;7.95;;;2.70;;
5785;SDS011;2919;48.630;9.000;2022-08-25T10:01:14;3.55;;;1.50;;
5785;SDS011;2919;48.630;9.000;2022-08-25T10:04:00;20.85;;;2.60;;
5785;SDS011;2919;48.630;9.000;2022-08-25T10:06:36;4.75;;;2.97;;
5785;SDS011;2919;48.630;9.000;2022-08-25T10:09:09;6.75;;;3.28;;
5785;SDS011;2919;48.630;9.000;2022-08-25T10:11:46;5.00;;;2.43;;
5785;SDS011;2919;48.630;9.000;2022-08-25T10:23:10;6.80;;;3.50;;
5785;SDS011;2919;48.630;9.000;2022-08-25T10:25:42;12.10;;;2.60;;
5785;SDS011;2919;48.630;9.000;2022-08-25T10:33:39;5.10;;;2.17;;
5785;SDS011;2919;48.630;9.000;2022-08-25T10:39:01;10.30;;;2.93;;
5785;SDS011;2919;48.630;9.000;2022-08-25T10:44:41;5.10;;;2.70;;
5785;SDS011;2919;48.630;9.000;2022-08-25T10:55:51;3.47;;;2.00;;
5785;SDS011;2919;48.630;9.000;2022-08-25T11:06:21;5.43;;;2.73;;
5785;SDS011;2919;48.630;9.000;2022-08-25T11:08:56;6.47;;;2.77;;
5785;SDS011;2919;48.630;9.000;2022-08-25T11:12:11;6.30;;;2.77;;
5785;SDS011;2919;48.630;9.000;2022-08-25T11:14:35;4.80;;;2.63;;
5785;SDS011;2919;48.630;9.000;2022-08-25T11:17:24;3.33;;;2.00;;
5785;SDS011;2919;48.630;9.000;2022-08-25T11:20:15;4.83;;;2.37;;
5785;SDS011;2919;48.630;9.000;2022-08-25T11:22:45;5.60;;;2.23;;
5785;SDS011;2919;48.630;9.000;2022-08-25T11:25:33;3.17;;;1.93;;
5785;SDS011;2919;48.630;9.000;2022-08-25T11:28:03;8.37;;;2.97;;
5785;SDS011;2919;48.630;9.000;2022-08-25T11:30:34;9.37;;;2.97;;
5785;SDS011;2919;48.630;9.000;2022-08-25T11:33:01;5.47;;;2.63;;
5785;SDS011;2919;48.630;9.000;2022-08-25T11:35:30;5.23;;;2.30;;
5785;SDS011;2919;48.630;9.000;2022-08-25T11:43:52;7.47;;;2.78;;
5785;SDS011;2919;48.630;9.000;2022-08-25T11:51:58;4.67;;;2.60;;
5785;SDS011;2919;48.630;9.000;2022-08-25T11:54:28;3.37;;;1.70;;
5785;SDS011;2919;48.630;9.000;2022-08-25T12:02:33;5.35;;;1.92;;
5785;SDS011;2919;48.630;9.000;2022-08-25T12:12:55;3.97;;;1.80;;
5785;SDS011;2919;48.630;9.000;2022-08-25T12:18:13;3.90;;;1.73;;
5785;SDS011;2919;48.630;9.000;2022-08-25T12:26:35;3.77;;;1.90;;
5785;SDS011;2919;48.630;9.000;2022-08-25T12:37:18;4.13;;;1.98;;
5785;SDS011;2919;48.630;9.000;2022-08-25T12:47:49;2.90;;;1.83;;
5785;SDS011;2919;48.630;9.000;2022-08-25T12:50:24;3.67;;;2.00;;
5785;SDS011;2919;48.630;9.000;2022-08-25T12:55:48;3.63;;;1.63;;
5785;SDS011;2919;48.630;9.000;2022-08-25T12:58:18;2.92;;;1.52;;
5785;SDS011;2919;48.630;9.000;2022-08-25T13:15:04;3.60;;;1.95;;
5785;SDS011;2919;48.630;9.000;2022-08-25T13:17:31;3.72;;;1.80;;
5785;SDS011;2919;48.630;9.000;2022-08-25T13:20:12;3.10;;;1.60;;
5785;SDS011;2919;48.630;9.000;2022-08-25T13:22:37;3.00;;;1.80;;
5785;SDS011;2919;48.630;9.000;2022-08-25T13:25:04;3.38;;;1.83;;
5785;SDS011;2919;48.630;9.000;2022-08-25T13:27:29;3.28;;;1.40;;
5785;SDS011;2919;48.630;9.000;2022-08-25T13:30:02;3.15;;;1.63;;
5785;SDS011;2919;48.630;9.000;2022-08-25T13:32:30;2.55;;;1.42;;
5785;SDS011;2919;48.630;9.000;2022-08-25T13:37:39;3.88;;;1.75;;
5785;SDS011;2919;48.630;9.000;2022-08-25T13:43:02;2.88;;;1.42;;
5785;SDS011;2919;48.630;9.000;2022-08-25T13:45:30;6.03;;;1.65;;
5785;SDS011;2919;48.630;9.000;2022-08-25T13:48:01;2.75;;;1.45;;
5785;SDS011;2919;48.630;9.000;2022-08-25T13:53:03;2.80;;;1.33;;
5785;SDS011;2919;48.630;9.000;2022-08-25T13:55:36;5.80;;;1.75;;
5785;SDS011;2919;48.630;9.000;2022-08-25T13:58:02;4.25;;;1.50;;
5785;SDS011;2919;48.630;9.000;2022-08-25T14:00:32;4.18;;;1.83;;
5785;SDS011;2919;48.630;9.000;2022-08-25T14:03:04;2.90;;;1.42;;
5785;SDS011;2919;48.630;9.000;2022-08-25T14:05:37;4.40;;;1.48;;
5785;SDS011;2919;48.630;9.000;2022-08-25T14:08:07;2.13;;;1.17;;
5785;SDS011;2919;48.630;9.000;2022-08-25T14:11:01;3.28;;;1.88;;
5785;SDS011;2919;48.630;9.000;2022-08-25T14:13:39;3.00;;;1.70;;
5785;SDS011;2919;48.630;9.000;2022-08-25T14:16:06;2.88;;;1.67;;
5785;SDS011;2919;48.630;9.000;2022-08-25T14:18:35;3.28;;;1.90;;
5785;SDS011;2919;48.630;9.000;2022-08-25T14:21:02;3.70;;;1.50;;
5785;SDS011;2919;48.630;9.000;2022-08-25T14:23:34;7.93;;;1.73;;
5785;SDS011;2919;48.630;9.000;2022-08-25T14:26:01;3.75;;;2.08;;
5785;SDS011;2919;48.630;9.000;2022-08-25T14:28:27;2.83;;;1.63;;
5785;SDS011;2919;48.630;9.000;2022-08-25T14:33:33;3.65;;;2.05;;
5785;SDS011;2919;48.630;9.000;2022-08-25T14:36:13;2.53;;;1.50;;
5785;SDS011;2919;48.630;9.000;2022-08-25T14:38:39;2.97;;;1.70;;
5785;SDS011;2919;48.630;9.000;2022-08-25T14:41:05;3.88;;;1.90;;
5785;SDS011;2919;48.630;9.000;2022-08-25T14:43:31;4.45;;;1.95;;
5785;SDS011;2919;48.630;9.000;2022-08-25T14:45:58;3.83;;;1.90;;
5785;SDS011;2919;48.630;9.000;2022-08-25T14:48:27;3.80;;;1.88;;
5785;SDS011;2919;48.630;9.000;2022-08-25T14:50:57;3.17;;;2.00;;
5785;SDS011;2919;48.630;9.000;2022-08-25T14:53:23;2.30;;;1.23;;
5785;SDS011;2919;48.630;9.000;2022-08-25T14:55:49;4.43;;;1.33;;
5785;SDS011;2919;48.630;9.000;2022-08-25T14:58:19;2.53;;;1.50;;
5785;SDS011;2919;48.630;9.000;2022-08-25T15:00:46;19.00;;;2.40;;
5785;SDS011;2919;48.630;9.000;2022-08-25T15:03:14;2.95;;;1.60;;
5785;SDS011;2919;48.630;9.000;2022-08-25T15:05:48;2.92;;;1.35;;
5785;SDS011;2919;48.630;9.000;2022-08-25T15:08:14;2.72;;;1.48;;
5785;SDS011;2919;48.630;9.000;2022-08-25T15:10:58;4.53;;;1.98;;
5785;SDS011;2919;48.630;9.000;2022-08-25T15:13:23;2.42;;;1.13;;
5785;SDS011;2919;48.630;9.000;2022-08-25T15:15:51;3.75;;;1.88;;
5785;SDS011;2919;48.630;9.000;2022-08-25T15:18:17;4.50;;;1.67;;
5785;SDS011;2919;48.630;9.000;2022-08-25T15:20:43;1.98;;;1.17;;
5785;SDS011;2919;48.630;9.000;2022-08-25T15:23:09;4.07;;;2.10;;
5785;SDS011;2919;48.630;9.000;2022-08-25T15:25:35;2.70;;;1.60;;
5785;SDS011;2919;48.630;9.000;2022-08-25T15:28:04;7.45;;;1.67;;
5785;SDS011;2919;48.630;9.000;2022-08-25T15:30:31;5.00;;;1.55;;
5785;SDS011;2919;48.630;9.000;2022-08-25T15:32:57;2.65;;;1.30;;
5785;SDS011;2919;48.630;9.000;2022-08-25T15:35:23;3.45;;;1.98;;
5785;SDS011;2919;48.630;9.000;2022-08-25T15:37:49;3.57;;;1.60;;
5785;SDS011;2919;48.630;9.000;2022-08-25T15:40:14;6.40;;;1.88;;
5785;SDS011;2919;48.630;9.000;2022-08-25T15:42:40;2.90;;;1.37;;
5785;SDS011;2919;48.630;9.000;2022-08-25T15:45:06;5.00;;;1.70;;
5785;SDS011;2919;48.630;9.000;2022-08-25T15:47:33;2.80;;;1.50;;
5785;SDS011;2919;48.630;9.000;2022-08-25T15:50:09;3.35;;;1.63;;
5785;SDS011;2919;48.630;9.000;2022-08-25T15:52:38;3.92;;;1.65;;
5785;SDS011;2919;48.630;9.000;2022-08-25T15:55:04;3.33;;;1.77;;
5785;SDS011;2919;48.630;9.000;2022-08-25T15:57:31;4.00;;;2.00;;
5785;SDS011;2919;48.630;9.000;2022-08-25T15:59:56;2.90;;;1.57;;
5785;SDS011;2919;48.630;9.000;2022-08-25T16:02:23;2.40;;;1.50;;
5785;SDS011;2919;48.630;9.000;2022-08-25T16:04:48;2.77;;;1.40;;
5785;SDS011;2919;48.630;9.000;2022-08-25T16:07:15;3.03;;;1.30;;
5785;SDS011;2919;48.630;9.000;2022-08-25T16:09:41;3.07;;;1.43;;
5785;SDS011;2919;48.630;9.000;2022-08-25T16:12:07;3.75;;;1.63;;
5785;SDS011;2919;48.630;9.000;2022-08-25T16:14:32;3.88;;;1.90;;
5785;SDS011;2919;48.630;9.000;2022-08-25T16:16:58;3.57;;;1.67;;
5785;SDS011;2919;48.630;9.000;2022-08-25T16:19:24;3.43;;;1.80;;
5785;SDS011;2919;48.630;9.000;2022-08-25T16:21:50;4.47;;;1.73;;
5785;SDS011;2919;48.630;9.000;2022-08-25T16:24:16;4.40;;;1.80;;
5785;SDS011;2919;48.630;9.000;2022-08-25T16:26:42;3.37;;;1.77;;
5785;SDS011;2919;48.630;9.000;2022-08-25T16:29:10;2.70;;;1.40;;
5785;SDS011;2919;48.630;9.000;2022-08-25T16:31:38;3.77;;;2.23;;
5785;SDS011;2919;48.630;9.000;2022-08-25T16:34:04;4.23;;;1.97;;
5785;SDS011;2919;48.630;9.000;2022-08-25T16:36:29;4.70;;;1.77;;
5785;SDS011;2919;48.630;9.000;2022-08-25T16:38:55;3.97;;;2.37;;
5785;SDS011;2919;48.630;9.000;2022-08-25T16:41:25;3.33;;;1.90;;
5785;SDS011;2919;48.630;9.000;2022-08-25T16:43:58;5.57;;;2.33;;
5785;SDS011;2919;48.630;9.000;2022-08-25T16:46:25;3.90;;;1.53;;
5785;SDS011;2919;48.630;9.000;2022-08-25T16:48:51;4.50;;;2.27;;
5785;SDS011;2919;48.630;9.000;2022-08-25T16:51:19;4.47;;;2.20;;
5785;SDS011;2919;48.630;9.000;2022-08-25T16:53:46;3.87;;;2.13;;
5785;SDS011;2919;48.630;9.000;2022-08-25T16:56:32;3.13;;;1.73;;
5785;SDS011;2919;48.630;9.000;2022-08-25T16:59:00;3.37;;;1.77;;
5785;SDS011;2919;48.630;9.000;2022-08-25T17:01:27;4.27;;;2.23;;
5785;SDS011;2919;48.630;9.000;2022-08-25T17:03:54;3.37;;;1.80;;
5785;SDS011;2919;48.630;9.000;2022-08-25T17:06:22;4.10;;;1.53;;
5785;SDS011;2919;48.630;9.000;2022-08-25T17:08:49;3.80;;;2.00;;
5785;SDS011;2919;48.630;9.000;2022-08-25T17:11:17;5.50;;;2.50;;
5785;SDS011;2919;48.630;9.000;2022-08-25T17:13:46;3.30;;;1.73;;
5785;SDS011;2919;48.630;9.000;2022-08-25T17:16:14;2.60;;;1.43;;
5785;SDS011;2919;48.630;9.000;2022-08-25T17:18:41;3.10;;;2.20;;
5785;SDS011;2919;48.630;9.000;2022-08-25T17:21:08;3.40;;;1.93;;
5785;SDS011;2919;48.630;9.000;2022-08-25T17:23:39;3.60;;;1.70;;
5785;SDS011;2919;48.630;9.000;2022-08-25T17:26:07;8.60;;;2.10;;
5785;SDS011;2919;48.630;9.000;2022-08-25T17:28:38;5.03;;;2.37;;
5785;SDS011;2919;48.630;9.000;2022-08-25T17:31:05;5.57;;;2.43;;
5785;SDS011;2919;48.630;9.000;2022-08-25T17:33:31;3.33;;;1.90;;
5785;SDS011;2919;48.630;9.000;2022-08-25T17:35:57;5.73;;;1.83;;
5785;SDS011;2919;48.630;9.000;2022-08-25T17:38:23;3.50;;;2.13;;
5785;SDS011;2919;48.630;9.000;2022-08-25T17:40:51;4.30;;;2.03;;
5785;SDS011;2919;48.630;9.000;2022-08-25T17:43:20;3.87;;;2.17;;
5785;SDS011;2919;48.630;9.000;2022-08-25T17:45:46;3.83;;;2.00;;
5785;SDS011;2919;48.630;9.000;2022-08-25T17:48:13;3.53;;;1.90;;
5785;SDS011;2919;48.630;9.000;2022-08-25T17:50:39;4.00;;;2.20;;
5785;SDS011;2919;48.630;9.000;2022-08-25T17:53:06;3.30;;;1.87;;
5785;SDS011;2919;48.630;9.000;2022-08-25T17:55:33;5.60;;;2.40;;
5785;SDS011;2919;48.630;9.000;2022-08-25T17:57:59;3.10;;;1.53;;
5785;SDS011;2919;48.630;9.000;2022-08-25T18:00:26;3.43;;;1.90;;